KIPL/IPL METAR and TAF weather

Enter ICAO airport designator
Station Type Date Time Source
KIPL METAR 2022/06/25 22:53 UTC NOAA

KIPL 252253Z AUTO 10007KT 10SM CLR 42/09 A2971 RMK AO2 SLP060 T04220094


Station Type Date Time Source
KIPL Decoded METAR 2022/06/25 22:53 UTC NOAA

Imperial, Imperial County Airport, CA, United States (KIPL) 32-50-03N 115-34-43W -15M
Jun 25, 2022 - 06:53 PM EDT / 2022.06.25 2253 UTC
Wind: from the E (100 degrees) at 8 MPH (7 KT):0
Visibility: 10 mile(s):0
Sky conditions: clear
Temperature: 108.0 F (42.2 C)
Dew Point: 48.9 F (9.4 C)
Relative Humidity: 14%
Pressure (altimeter): 29.71 in. Hg (1006 hPa)
ob: KIPL 252253Z AUTO 10007KT 10SM CLR 42/09 A2971 RMK AO2 SLP060 T04220094
cycle: 23

Station Type Date Time Source
KIPL TAF 2022/06/25 18:22 UTC NOAA

TAF KIPL 251720Z 2518/2618 16007KT P6SM SKC
FM260300 23008KT P6SM SKC
FM260800 15005KT P6SM SKC

Example: see airport list